createdAt,value
2017-04-26T00:00:14.948Z,17.13
2017-04-26T00:01:14.741Z,19.08
2017-04-26T00:02:14.473Z,12.87
2017-04-26T00:03:14.194Z,17.18
2017-04-26T00:04:13.878Z,13.85
2017-04-26T00:05:13.612Z,14.25
2017-04-26T00:06:13.317Z,14.57
2017-04-26T00:07:12.993Z,12.28
2017-04-26T00:08:12.663Z,14.15
2017-04-26T00:09:12.349Z,11.92
2017-04-26T00:10:12.089Z,17.35
2017-04-26T00:11:11.781Z,16.67
2017-04-26T00:12:11.522Z,19.78
2017-04-26T00:13:11.213Z,23.45
2017-04-26T00:14:10.873Z,16.42
2017-04-26T00:15:10.545Z,13.08
2017-04-26T00:16:10.255Z,14.83
2017-04-26T00:17:09.941Z,18.00
2017-04-26T00:18:09.689Z,18.27
2017-04-26T00:19:09.328Z,10.73
2017-04-26T00:20:09.005Z,12.33
2017-04-26T00:21:08.774Z,17.05
2017-04-26T00:22:09.235Z,27.88
2017-04-26T00:23:09.045Z,17.23
2017-04-26T00:24:09.515Z,16.98
2017-04-26T00:25:09.325Z,13.17
2017-04-26T00:26:08.993Z,11.62
2017-04-26T00:27:08.718Z,12.03
2017-04-26T00:28:08.400Z,12.12
2017-04-26T00:29:08.141Z,14.12
2017-04-26T00:30:07.825Z,12.43
2017-04-26T00:31:07.502Z,11.63
2017-04-26T00:32:07.187Z,13.08
2017-04-26T00:33:06.910Z,13.92
2017-04-26T00:34:07.306Z,11.57
2017-04-26T00:35:07.046Z,12.50
2017-04-26T00:36:06.701Z,12.08
2017-04-26T00:37:06.392Z,18.23
2017-04-26T00:38:06.059Z,16.25
2017-04-26T00:39:06.509Z,23.27
2017-04-26T00:40:06.291Z,12.33
2017-04-26T00:41:06.031Z,12.60
2017-04-26T00:42:05.712Z,13.73
2017-04-26T00:43:05.374Z,12.22
2017-04-26T00:44:05.131Z,10.13
2017-04-26T00:45:04.828Z,11.87
2017-04-26T00:46:05.239Z,15.37
2017-04-26T00:47:04.954Z,12.38
2017-04-26T00:48:04.801Z,11.83
2017-04-26T00:49:05.216Z,14.67
2017-04-26T00:50:04.883Z,18.12
2017-04-26T00:51:04.581Z,9.40
2017-04-26T00:52:04.307Z,10.95
2017-04-26T00:53:04.022Z,11.08
2017-04-26T00:54:03.745Z,11.28
2017-04-26T00:55:03.424Z,12.62
2017-04-26T00:56:03.080Z,11.85
2017-04-26T00:57:02.805Z,12.63
2017-04-26T00:58:02.478Z,13.80
2017-04-26T00:59:02.172Z,16.15
2017-04-26T01:00:01.938Z,13.57
2017-04-26T01:01:01.618Z,15.40
2017-04-26T01:02:01.296Z,9.90
2017-04-26T01:03:01.008Z,11.72
2017-04-26T01:04:00.721Z,16.15
2017-04-26T01:05:00.459Z,14.50
2017-04-26T01:06:00.213Z,14.52
2017-04-26T01:06:59.933Z,12.90
2017-04-26T01:07:59.609Z,14.32
2017-04-26T01:08:59.316Z,13.02
2017-04-26T01:09:59.764Z,17.42
2017-04-26T01:10:59.465Z,12.12
2017-04-26T01:11:59.113Z,12.63
2017-04-26T01:12:58.850Z,15.02
2017-04-26T01:13:58.532Z,15.20
2017-04-26T01:14:58.979Z,13.17
2017-04-26T01:15:58.718Z,12.82
2017-04-26T01:16:58.409Z,12.53
2017-04-26T01:17:58.139Z,11.03
2017-04-26T01:18:57.838Z,11.45
2017-04-26T01:19:57.586Z,13.92
2017-04-26T01:20:57.248Z,12.20
2017-04-26T01:21:56.979Z,12.87
2017-04-26T01:22:56.660Z,8.65
2017-04-26T01:23:56.387Z,14.12
2017-04-26T01:24:56.085Z,11.98
2017-04-26T01:25:55.834Z,12.45
2017-04-26T01:26:55.567Z,13.95
2017-04-26T01:27:55.291Z,12.68
2017-04-26T01:28:54.993Z,11.00
2017-04-26T01:29:55.396Z,10.85
2017-04-26T01:30:55.144Z,12.17
2017-04-26T01:31:55.588Z,12.58
2017-04-26T01:32:55.296Z,14.22
2017-04-26T01:33:55.009Z,11.17
2017-04-26T01:34:54.668Z,10.52
2017-04-26T01:35:54.344Z,12.52
2017-04-26T01:36:54.011Z,12.77
2017-04-26T01:37:53.705Z,13.12
2017-04-26T01:38:53.425Z,12.17
2017-04-26T01:39:53.117Z,10.32
2017-04-26T01:40:52.806Z,10.53
2017-04-26T01:41:52.490Z,10.03
2017-04-26T01:42:52.173Z,11.70
2017-04-26T01:43:51.844Z,11.88
2017-04-26T01:44:51.550Z,12.72
2017-04-26T01:45:51.220Z,12.37
2017-04-26T01:46:51.644Z,10.97
2017-04-26T01:47:51.346Z,14.33
2017-04-26T01:48:51.785Z,12.22
2017-04-26T01:49:51.564Z,11.03
2017-04-26T01:50:51.241Z,12.40
2017-04-26T01:51:51.691Z,13.90
2017-04-26T01:52:51.357Z,9.90
2017-04-26T01:53:51.053Z,13.68
2017-04-26T01:54:51.567Z,10.92
2017-04-26T01:55:51.245Z,11.03
2017-04-26T01:56:50.900Z,13.75
2017-04-26T01:57:50.605Z,9.97
2017-04-26T01:58:50.313Z,10.20
2017-04-26T01:59:49.983Z,12.68
2017-04-26T02:00:49.704Z,10.93
2017-04-26T02:01:49.481Z,13.73
2017-04-26T02:02:49.190Z,12.57
2017-04-26T02:03:48.869Z,13.15
2017-04-26T02:04:48.595Z,9.73
2017-04-26T02:05:48.257Z,9.17
2017-04-26T02:06:47.988Z,11.02
2017-04-26T02:07:47.653Z,12.68
2017-04-26T02:08:47.321Z,14.27
2017-04-26T02:09:47.082Z,10.60
2017-04-26T02:10:46.817Z,11.37
2017-04-26T02:11:46.577Z,14.28
2017-04-26T02:12:46.321Z,12.68
2017-04-26T02:13:46.046Z,11.17
2017-04-26T02:14:45.743Z,10.00
2017-04-26T02:15:45.425Z,12.18
2017-04-26T02:16:45.159Z,8.45
2017-04-26T02:17:45.556Z,11.08
2017-04-26T02:18:45.336Z,10.50
2017-04-26T02:19:45.060Z,12.35
2017-04-26T02:20:45.493Z,11.95
2017-04-26T02:21:45.160Z,10.00
2017-04-26T02:22:44.893Z,9.87
2017-04-26T02:23:44.661Z,11.97
2017-04-26T02:24:44.344Z,10.68
2017-04-26T02:25:44.055Z,11.25
2017-04-26T02:26:43.736Z,13.02
2017-04-26T02:27:43.450Z,13.07
2017-04-26T02:28:43.168Z,13.68
2017-04-26T02:29:42.856Z,10.08
2017-04-26T02:30:42.621Z,12.22
2017-04-26T02:31:42.293Z,12.68
2017-04-26T02:32:41.952Z,11.98
2017-04-26T02:33:41.681Z,13.07
2017-04-26T02:34:41.356Z,11.73
2017-04-26T02:35:41.019Z,8.72
2017-04-26T02:36:40.729Z,10.92
2017-04-26T02:37:40.412Z,14.45
2017-04-26T02:38:40.160Z,12.73
2017-04-26T02:39:40.581Z,12.32
2017-04-26T02:40:40.242Z,13.03
2017-04-26T02:41:39.896Z,12.47
2017-04-26T02:42:39.599Z,13.23
2017-04-26T02:43:39.266Z,12.33
2017-04-26T02:44:39.729Z,13.53
2017-04-26T02:45:39.482Z,10.43
2017-04-26T02:46:39.145Z,13.85
2017-04-26T02:47:38.854Z,14.77
2017-04-26T02:48:38.555Z,14.68
2017-04-26T02:49:38.212Z,11.90
2017-04-26T02:50:37.894Z,11.15
2017-04-26T02:51:37.674Z,11.67
2017-04-26T02:52:37.337Z,11.87
2017-04-26T02:53:37.025Z,13.53
2017-04-26T02:54:36.730Z,11.22
2017-04-26T02:55:36.569Z,11.50
2017-04-26T02:56:36.349Z,12.57
2017-04-26T02:57:36.014Z,10.85
2017-04-26T02:58:35.765Z,11.28
2017-04-26T02:59:35.440Z,14.28
2017-04-26T03:00:35.206Z,11.50
2017-04-26T03:01:34.878Z,11.30
2017-04-26T03:02:34.597Z,10.22
2017-04-26T03:03:34.262Z,11.78
2017-04-26T03:04:33.939Z,8.65
2017-04-26T03:05:33.611Z,12.68
2017-04-26T03:06:33.325Z,12.63
2017-04-26T03:07:32.999Z,14.93
2017-04-26T03:08:32.748Z,9.88
2017-04-26T03:09:33.165Z,11.68
2017-04-26T03:10:33.554Z,12.82
2017-04-26T03:11:33.273Z,12.15
2017-04-26T03:12:33.732Z,13.33
2017-04-26T03:13:33.493Z,12.87
2017-04-26T03:14:33.169Z,12.20
2017-04-26T03:15:32.843Z,13.90
2017-04-26T03:16:32.560Z,10.97
2017-04-26T03:17:32.284Z,12.57
2017-04-26T03:18:31.992Z,11.23
2017-04-26T03:19:31.669Z,12.47
2017-04-26T03:20:31.325Z,12.57
2017-04-26T03:21:31.049Z,11.28
2017-04-26T03:22:30.778Z,13.07
2017-04-26T03:23:31.262Z,10.30
2017-04-26T03:24:30.994Z,11.37
2017-04-26T03:25:31.410Z,10.68
2017-04-26T03:26:31.108Z,12.08
2017-04-26T03:27:30.781Z,12.58
2017-04-26T03:28:30.471Z,13.78
2017-04-26T03:29:30.184Z,13.32
2017-04-26T03:30:29.896Z,12.52
2017-04-26T03:31:29.573Z,11.70
2017-04-26T03:32:29.247Z,12.57
2017-04-26T03:33:28.915Z,12.67
2017-04-26T03:34:28.571Z,13.82
2017-04-26T03:35:28.259Z,11.55
2017-04-26T03:36:27.922Z,10.02
2017-04-26T03:37:27.585Z,12.95
2017-04-26T03:38:27.285Z,14.15
2017-04-26T03:39:26.950Z,15.45
2017-04-26T03:40:26.660Z,15.32
2017-04-26T03:41:26.445Z,15.58
2017-04-26T03:42:26.107Z,13.52
2017-04-26T03:43:25.762Z,18.78
2017-04-26T03:44:25.428Z,13.47
2017-04-26T03:45:25.104Z,15.40
2017-04-26T03:46:24.767Z,15.58
2017-04-26T03:47:24.553Z,17.93
2017-04-26T03:48:24.369Z,13.17
2017-04-26T03:49:24.049Z,17.07
2017-04-26T03:50:23.731Z,17.17
2017-04-26T03:51:23.447Z,16.40
2017-04-26T03:52:23.131Z,15.83
2017-04-26T03:53:22.850Z,15.58
2017-04-26T03:54:22.524Z,13.83
2017-04-26T03:55:22.192Z,16.63
2017-04-26T03:56:21.979Z,14.43
2017-04-26T03:57:21.757Z,12.17
2017-04-26T03:58:21.404Z,14.08
2017-04-26T03:59:21.122Z,15.92
2017-04-26T04:00:20.831Z,13.77
2017-04-26T04:01:20.550Z,12.30
2017-04-26T04:02:20.202Z,11.17
2017-04-26T04:03:19.854Z,13.15
2017-04-26T04:04:19.512Z,13.00
2017-04-26T04:05:19.243Z,12.23
2017-04-26T04:06:18.885Z,13.13
2017-04-26T04:07:19.353Z,12.27
2017-04-26T04:08:19.028Z,14.42
2017-04-26T04:09:18.707Z,12.25
2017-04-26T04:10:18.447Z,13.27
2017-04-26T04:11:18.879Z,13.02
2017-04-26T04:12:18.542Z,12.38
2017-04-26T04:13:18.233Z,16.67
2017-04-26T04:14:17.872Z,15.62
2017-04-26T04:15:17.537Z,12.17
2017-04-26T04:16:17.175Z,14.15
2017-04-26T04:17:16.873Z,15.22
2017-04-26T04:18:16.603Z,10.95
2017-04-26T04:19:16.246Z,12.33
2017-04-26T04:20:15.925Z,14.52
2017-04-26T04:21:15.642Z,11.33
2017-04-26T04:22:16.040Z,12.45
2017-04-26T04:23:15.773Z,15.45
2017-04-26T04:24:15.449Z,14.15
2017-04-26T04:25:15.105Z,17.47
2017-04-26T04:26:14.787Z,15.53
2017-04-26T04:27:14.453Z,17.77
2017-04-26T04:28:14.090Z,15.47
2017-04-26T04:29:13.793Z,16.53
2017-04-26T04:30:13.489Z,13.68
2017-04-26T04:31:13.196Z,15.58
2017-04-26T04:32:12.897Z,14.50
2017-04-26T04:33:13.332Z,19.28
2017-04-26T04:34:13.017Z,13.48
2017-04-26T04:35:12.770Z,15.08
2017-04-26T04:36:12.452Z,14.32
2017-04-26T04:37:12.868Z,11.33
2017-04-26T04:38:12.560Z,13.05
2017-04-26T04:39:12.225Z,14.68
2017-04-26T04:40:11.900Z,15.30
2017-04-26T04:41:11.661Z,15.08
2017-04-26T04:42:11.339Z,15.83
2017-04-26T04:43:11.038Z,19.43
2017-04-26T04:44:10.728Z,17.33
2017-04-26T04:45:10.396Z,14.07
2017-04-26T04:46:10.028Z,13.02
2017-04-26T04:47:09.711Z,13.05
2017-04-26T04:48:09.353Z,16.88
2017-04-26T04:49:09.008Z,14.25
2017-04-26T04:50:08.737Z,14.63
2017-04-26T04:51:09.141Z,15.95
2017-04-26T04:52:08.814Z,13.15
2017-04-26T04:53:08.713Z,14.25
2017-04-26T04:54:09.711Z,17.02
2017-04-26T04:55:09.483Z,15.90
2017-04-26T04:56:09.143Z,11.78
2017-04-26T04:57:09.139Z,13.15
2017-04-26T04:58:08.833Z,11.02
2017-04-26T04:59:09.241Z,14.62
2017-04-26T05:00:08.896Z,11.25
2017-04-26T05:01:08.569Z,15.55
2017-04-26T05:02:08.220Z,13.45
2017-04-26T05:03:07.897Z,15.28
2017-04-26T05:04:07.601Z,15.10
2017-04-26T05:05:07.385Z,15.92
2017-04-26T05:06:07.050Z,13.37
2017-04-26T05:07:06.712Z,16.55
2017-04-26T05:08:06.361Z,14.68
2017-04-26T05:09:06.653Z,15.25
2017-04-26T05:10:06.345Z,13.57
2017-04-26T05:11:06.045Z,16.05
2017-04-26T05:12:05.701Z,13.75
2017-04-26T05:13:05.360Z,14.55
2017-04-26T05:14:05.049Z,14.93
2017-04-26T05:15:04.719Z,15.85
2017-04-26T05:16:04.457Z,14.70
2017-04-26T05:17:04.170Z,12.10
2017-04-26T05:18:03.820Z,14.53
2017-04-26T05:19:03.579Z,16.48
2017-04-26T05:20:03.276Z,13.33
2017-04-26T05:21:02.949Z,13.65
2017-04-26T05:22:02.672Z,11.70
2017-04-26T05:23:03.068Z,15.23
2017-04-26T05:24:03.461Z,10.43
2017-04-26T05:25:03.093Z,15.42
2017-04-26T05:26:02.755Z,17.43
2017-04-26T05:27:02.506Z,15.03
2017-04-26T05:28:02.196Z,14.83
2017-04-26T05:29:01.861Z,18.03
2017-04-26T05:30:01.586Z,18.37
2017-04-26T05:31:01.282Z,11.63
2017-04-26T05:32:01.684Z,16.98
2017-04-26T05:33:03.320Z,22.98
2017-04-26T05:34:02.973Z,16.97
2017-04-26T05:35:02.645Z,15.75
2017-04-26T05:36:02.292Z,12.62
2017-04-26T05:37:02.013Z,12.48
2017-04-26T05:38:01.656Z,15.97
2017-04-26T05:39:01.551Z,12.43
2017-04-26T05:40:01.205Z,15.53
2017-04-26T05:41:01.019Z,12.62
2017-04-26T05:42:01.541Z,14.75
2017-04-26T05:43:01.960Z,14.45
2017-04-26T05:44:02.404Z,15.77
2017-04-26T05:45:02.059Z,15.27
2017-04-26T05:46:02.059Z,15.43
2017-04-26T05:47:02.560Z,16.23
2017-04-26T05:48:02.320Z,19.53
2017-04-26T05:49:01.984Z,16.92
2017-04-26T05:50:02.503Z,16.68
2017-04-26T05:51:02.277Z,21.77
2017-04-26T05:52:02.151Z,25.43
2017-04-26T05:53:01.870Z,17.70
2017-04-26T05:54:02.436Z,17.67
2017-04-26T05:55:02.104Z,19.48
2017-04-26T05:56:01.806Z,17.92
2017-04-26T05:57:01.529Z,20.90
2017-04-26T05:58:02.332Z,18.83
2017-04-26T05:59:01.994Z,27.03
2017-04-26T06:00:01.635Z,23.08
2017-04-26T06:01:02.089Z,24.25
2017-04-26T06:02:01.796Z,15.20
2017-04-26T06:03:01.471Z,21.85
2017-04-26T06:04:01.222Z,22.62
2017-04-26T06:05:00.960Z,19.27
2017-04-26T06:06:01.430Z,20.00
2017-04-26T06:07:01.180Z,20.80
2017-04-26T06:08:00.857Z,14.27
2017-04-26T06:09:01.285Z,16.27
2017-04-26T06:10:01.020Z,17.13
2017-04-26T06:11:00.732Z,16.22
2017-04-26T06:12:00.422Z,23.83
2017-04-26T06:13:00.069Z,15.75
2017-04-26T06:14:00.570Z,18.43
2017-04-26T06:15:00.217Z,17.87
2017-04-26T06:15:59.893Z,20.67
2017-04-26T06:17:00.364Z,17.58
2017-04-26T06:18:00.111Z,20.35
2017-04-26T06:19:00.058Z,17.63
2017-04-26T06:19:59.743Z,19.60
2017-04-26T06:20:59.469Z,17.90
2017-04-26T06:21:59.210Z,18.25
2017-04-26T06:22:58.955Z,16.72
2017-04-26T06:23:58.712Z,17.87
2017-04-26T06:24:58.449Z,26.77
2017-04-26T06:25:58.132Z,18.78
2017-04-26T06:26:57.779Z,19.95
2017-04-26T06:27:57.455Z,19.77
2017-04-26T06:28:57.144Z,16.35
2017-04-26T06:29:56.794Z,16.02
2017-04-26T06:30:57.224Z,16.02
2017-04-26T06:31:56.880Z,17.05
2017-04-26T06:32:56.557Z,18.90
2017-04-26T06:33:56.956Z,21.30
2017-04-26T06:34:56.659Z,18.22
2017-04-26T06:35:56.335Z,25.18
2017-04-26T06:36:55.979Z,21.05
2017-04-26T06:37:55.706Z,21.27
2017-04-26T06:38:55.429Z,21.37
2017-04-26T06:39:55.081Z,20.27
2017-04-26T06:40:54.764Z,20.03
2017-04-26T06:41:55.225Z,26.75
2017-04-26T06:42:54.876Z,24.60
2017-04-26T06:43:54.622Z,20.68
2017-04-26T06:44:55.119Z,23.53
2017-04-26T06:45:54.841Z,18.70
2017-04-26T06:46:54.498Z,22.95
2017-04-26T06:47:54.173Z,19.05
2017-04-26T06:48:53.874Z,25.23
2017-04-26T06:49:53.541Z,23.88
2017-04-26T06:50:53.203Z,24.52
2017-04-26T06:51:52.896Z,23.77
2017-04-26T06:52:52.548Z,23.23
2017-04-26T06:53:52.199Z,23.82
2017-04-26T06:54:51.918Z,27.73
2017-04-26T06:55:51.573Z,30.77
2017-04-26T06:56:51.233Z,20.90
2017-04-26T06:57:50.930Z,25.58
2017-04-26T06:58:50.711Z,17.12
2017-04-26T06:59:50.374Z,22.73
2017-04-26T07:00:50.110Z,18.82
2017-04-26T07:01:49.768Z,20.33
2017-04-26T07:02:59.370Z,22.40
2017-04-26T07:03:59.041Z,18.90
2017-04-26T07:04:58.689Z,20.27
2017-04-26T07:05:58.384Z,24.28
2017-04-26T07:06:58.072Z,22.28
2017-04-26T07:07:57.723Z,22.45
2017-04-26T07:08:57.416Z,22.05
2017-04-26T07:09:57.092Z,21.67
2017-04-26T07:10:56.941Z,18.12
2017-04-26T07:11:56.676Z,15.18
2017-04-26T07:12:56.338Z,13.50
2017-04-26T07:13:56.007Z,16.23
2017-04-26T07:14:55.712Z,15.48
2017-04-26T07:15:55.401Z,17.93
2017-04-26T07:16:55.080Z,16.00
2017-04-26T07:17:54.826Z,17.85
2017-04-26T07:18:54.481Z,17.33
2017-04-26T07:19:54.143Z,18.50
2017-04-26T07:20:53.848Z,16.58
2017-04-26T07:21:53.604Z,16.70
2017-04-26T07:22:53.257Z,12.12
2017-04-26T07:23:52.901Z,18.80
2017-04-26T07:24:52.563Z,16.05
2017-04-26T07:25:52.249Z,18.48
2017-04-26T07:26:51.992Z,18.08
2017-04-26T07:27:51.645Z,20.23
2017-04-26T07:28:51.391Z,15.22
2017-04-26T07:29:51.068Z,21.82
2017-04-26T07:30:50.787Z,19.57
2017-04-26T07:31:51.187Z,20.05
2017-04-26T07:32:50.886Z,20.68
2017-04-26T07:33:51.326Z,14.33
2017-04-26T07:34:50.989Z,18.58
2017-04-26T07:35:50.669Z,17.23
2017-04-26T07:36:50.349Z,15.43
2017-04-26T07:37:50.004Z,16.17
2017-04-26T07:38:49.721Z,18.48
2017-04-26T07:39:49.381Z,17.92
2017-04-26T07:40:49.044Z,20.62
2017-04-26T07:41:48.694Z,18.13
2017-04-26T07:42:48.352Z,16.42
2017-04-26T07:43:48.032Z,17.45
2017-04-26T07:44:48.053Z,19.52
2017-04-26T07:45:47.712Z,15.73
2017-04-26T07:46:47.356Z,18.38
2017-04-26T07:47:47.313Z,14.42
2017-04-26T07:48:46.989Z,13.63
2017-04-26T07:49:47.397Z,14.78
2017-04-26T07:50:47.107Z,13.92
2017-04-26T07:51:47.508Z,18.08
2017-04-26T07:52:47.221Z,12.90
2017-04-26T07:53:46.868Z,15.20
2017-04-26T07:54:46.617Z,14.95
2017-04-26T07:55:47.064Z,15.30
2017-04-26T07:56:46.721Z,12.93
2017-04-26T07:57:47.115Z,13.35
2017-04-26T07:58:46.772Z,11.67
2017-04-26T07:59:46.521Z,16.85
2017-04-26T08:00:46.240Z,13.95
2017-04-26T08:01:45.939Z,17.62
2017-04-26T08:02:46.415Z,16.92
2017-04-26T08:03:46.079Z,18.80
2017-04-26T08:04:45.733Z,17.53
2017-04-26T08:05:45.397Z,13.58
2017-04-26T08:06:45.040Z,21.45
2017-04-26T08:07:45.481Z,14.52
2017-04-26T08:08:45.144Z,15.85
2017-04-26T08:09:44.805Z,18.20
2017-04-26T08:10:44.462Z,19.00
2017-04-26T08:11:44.125Z,19.27
2017-04-26T08:12:43.850Z,25.77
2017-04-26T08:13:43.591Z,20.78
2017-04-26T08:14:43.352Z,17.10
2017-04-26T08:15:43.016Z,18.98
2017-04-26T08:16:42.746Z,14.55
2017-04-26T08:17:43.136Z,34.90
2017-04-26T08:18:42.829Z,31.32
2017-04-26T08:19:42.522Z,29.98
2017-04-26T08:20:42.187Z,27.27
2017-04-26T08:21:41.841Z,34.70
2017-04-26T08:22:41.511Z,25.65
2017-04-26T08:23:41.161Z,32.50
2017-04-26T08:24:40.825Z,27.95
2017-04-26T08:25:40.554Z,29.47
2017-04-26T08:26:40.225Z,18.62
2017-04-26T08:27:39.877Z,20.02
2017-04-26T08:28:39.533Z,14.20
2017-04-26T08:29:39.180Z,14.08
2017-04-26T08:30:38.832Z,13.75
2017-04-26T08:31:39.518Z,17.77
2017-04-26T08:32:39.178Z,13.82
2017-04-26T08:33:38.828Z,16.48
2017-04-26T08:34:39.236Z,11.23
2017-04-26T08:35:38.957Z,16.93
2017-04-26T08:36:39.468Z,14.57
2017-04-26T08:37:39.928Z,15.17
2017-04-26T08:38:39.563Z,19.18
2017-04-26T08:39:39.290Z,14.55
2017-04-26T08:40:38.956Z,14.25
2017-04-26T08:41:38.662Z,12.92
2017-04-26T08:42:38.375Z,11.97
2017-04-26T08:43:38.027Z,13.42
2017-04-26T08:44:37.697Z,14.15
2017-04-26T08:45:37.362Z,15.02
2017-04-26T08:46:37.032Z,11.32
2017-04-26T08:47:36.719Z,17.92
2017-04-26T08:48:37.097Z,20.77
2017-04-26T08:49:36.761Z,15.12
2017-04-26T08:50:36.484Z,15.17
2017-04-26T08:51:36.908Z,14.27
2017-04-26T08:52:36.616Z,17.40
2017-04-26T08:53:36.273Z,16.70
2017-04-26T08:54:35.914Z,14.17
2017-04-26T08:55:35.577Z,14.10
2017-04-26T08:56:36.995Z,17.77
2017-04-26T08:57:36.684Z,17.52
2017-04-26T08:58:37.140Z,15.10
2017-04-26T08:59:36.800Z,16.33
2017-04-26T09:00:36.517Z,10.68
2017-04-26T09:01:36.126Z,13.02
2017-04-26T09:02:35.805Z,16.83
2017-04-26T09:03:35.493Z,15.47
2017-04-26T09:04:35.180Z,15.45
2017-04-26T09:05:34.841Z,13.25
2017-04-26T09:06:34.507Z,17.58
2017-04-26T09:07:34.920Z,14.15
2017-04-26T09:08:35.315Z,18.00
2017-04-26T09:09:35.012Z,17.00
2017-04-26T09:10:34.750Z,19.03
2017-04-26T09:11:35.146Z,18.00
2017-04-26T09:12:34.861Z,18.60
2017-04-26T09:13:35.247Z,17.05
2017-04-26T09:14:34.941Z,16.32
2017-04-26T09:15:34.621Z,16.93
2017-04-26T09:16:35.011Z,15.35
2017-04-26T09:17:34.668Z,14.25
2017-04-26T09:18:34.320Z,14.58
2017-04-26T09:19:33.961Z,18.43
2017-04-26T09:20:33.640Z,16.72
2017-04-26T09:21:33.377Z,16.12
2017-04-26T09:22:33.043Z,19.68
2017-04-26T09:23:32.775Z,16.75
2017-04-26T09:24:33.176Z,17.70
2017-04-26T09:25:32.837Z,19.87
2017-04-26T09:26:32.558Z,14.48
2017-04-26T09:27:32.308Z,16.68
2017-04-26T09:28:31.983Z,21.05
2017-04-26T09:29:31.649Z,17.23
2017-04-26T09:30:31.381Z,18.07
2017-04-26T09:31:31.033Z,16.22
2017-04-26T09:32:30.776Z,15.82
2017-04-26T09:33:30.490Z,16.02
2017-04-26T09:34:30.149Z,22.17
2017-04-26T09:35:29.872Z,19.70
2017-04-26T09:36:29.529Z,19.78
2017-04-26T09:37:29.210Z,16.92
2017-04-26T09:38:28.917Z,14.50
2017-04-26T09:39:28.664Z,15.78
2017-04-26T09:40:29.078Z,22.70
2017-04-26T09:41:28.772Z,21.37
2017-04-26T09:42:29.209Z,16.93
2017-04-26T09:43:28.964Z,14.60
2017-04-26T09:44:28.673Z,11.27
2017-04-26T09:45:28.348Z,10.65
2017-04-26T09:46:28.018Z,10.12
2017-04-26T09:47:27.693Z,10.78
2017-04-26T09:48:27.415Z,12.10
2017-04-26T09:49:27.147Z,9.55
2017-04-26T09:50:26.856Z,21.48
2017-04-26T09:51:26.513Z,19.15
2017-04-26T09:52:26.181Z,11.30
2017-04-26T09:53:25.829Z,11.53
2017-04-26T09:54:25.469Z,9.07
2017-04-26T09:55:25.161Z,9.67
2017-04-26T09:56:24.818Z,12.82
2017-04-26T09:57:24.484Z,12.90
2017-04-26T09:58:24.135Z,10.72
2017-04-26T09:59:23.859Z,13.30
2017-04-26T10:00:23.544Z,9.50
2017-04-26T10:01:23.333Z,11.87
2017-04-26T10:02:23.015Z,9.45
2017-04-26T10:03:22.758Z,12.05
2017-04-26T10:04:22.408Z,10.83
2017-04-26T10:05:22.800Z,11.37
2017-04-26T10:06:22.437Z,10.18
2017-04-26T10:07:22.121Z,11.70
2017-04-26T10:08:21.861Z,12.33
2017-04-26T10:09:22.237Z,13.33
2017-04-26T10:10:21.893Z,13.37
2017-04-26T10:11:21.547Z,15.22
2017-04-26T10:12:21.231Z,14.97
2017-04-26T10:13:20.925Z,13.48
2017-04-26T10:14:30.465Z,15.83
2017-04-26T10:15:20.433Z,14.30
2017-04-26T10:16:20.165Z,17.67
2017-04-26T10:17:20.552Z,15.10
2017-04-26T10:18:20.266Z,13.88
2017-04-26T10:19:19.941Z,14.80
2017-04-26T10:20:19.605Z,16.43
2017-04-26T10:21:19.260Z,14.83
2017-04-26T10:22:18.916Z,16.33
2017-04-26T10:23:18.561Z,16.22
2017-04-26T10:24:18.263Z,16.73
2017-04-26T10:25:18.657Z,15.72
2017-04-26T10:26:18.376Z,15.25
2017-04-26T10:27:18.759Z,14.12
2017-04-26T10:28:18.490Z,13.28
2017-04-26T10:29:18.920Z,13.77
2017-04-26T10:30:20.163Z,15.53
2017-04-26T10:31:18.407Z,19.85
2017-04-26T10:32:18.069Z,12.87
2017-04-26T10:33:17.726Z,13.40
2017-04-26T10:34:17.381Z,14.80
2017-04-26T10:35:17.458Z,14.80
2017-04-26T10:36:17.190Z,15.23
2017-04-26T10:37:16.853Z,15.58
2017-04-26T10:38:16.504Z,14.10
2017-04-26T10:39:16.901Z,14.80
2017-04-26T10:40:16.583Z,14.40
2017-04-26T10:41:16.327Z,16.38
2017-04-26T10:42:15.972Z,15.13
2017-04-26T10:43:15.720Z,17.05
2017-04-26T10:44:15.361Z,17.90
2017-04-26T10:45:19.659Z,16.05
2017-04-26T10:46:19.408Z,19.12
2017-04-26T10:47:19.793Z,15.32
2017-04-26T10:48:19.522Z,13.02
2017-04-26T10:49:19.173Z,12.65
2017-04-26T10:50:18.854Z,15.52
2017-04-26T10:51:18.496Z,12.30
2017-04-26T10:52:18.206Z,10.60
2017-04-26T10:53:18.608Z,11.43
2017-04-26T10:54:18.276Z,13.52
2017-04-26T10:55:17.946Z,14.78
2017-04-26T10:56:17.601Z,16.48
2017-04-26T10:57:17.318Z,16.98
2017-04-26T10:58:17.013Z,14.55
2017-04-26T10:59:16.681Z,14.50
2017-04-26T11:00:16.568Z,12.03
2017-04-26T11:01:17.025Z,14.93
2017-04-26T11:02:16.745Z,13.60
2017-04-26T11:03:16.397Z,15.95
2017-04-26T11:04:16.121Z,14.45
2017-04-26T11:05:15.798Z,13.93
2017-04-26T11:06:15.462Z,13.62
2017-04-26T11:07:15.103Z,15.90
2017-04-26T11:08:14.755Z,17.32
2017-04-26T11:09:14.411Z,16.52
2017-04-26T11:10:14.841Z,14.73
2017-04-26T11:11:14.517Z,15.83
2017-04-26T11:12:14.179Z,13.47
2017-04-26T11:13:13.926Z,13.42
2017-04-26T11:14:13.581Z,14.52
2017-04-26T11:15:13.325Z,14.13
2017-04-26T11:16:13.100Z,12.38
2017-04-26T11:17:12.757Z,20.07
2017-04-26T11:18:12.409Z,17.93
2017-04-26T11:19:12.813Z,17.10
2017-04-26T11:20:13.221Z,16.02
2017-04-26T11:21:12.907Z,19.65
2017-04-26T11:22:12.645Z,15.03
2017-04-26T11:23:13.033Z,14.57
2017-04-26T11:24:12.760Z,12.45
2017-04-26T11:25:12.412Z,16.50
2017-04-26T11:26:12.063Z,17.28
2017-04-26T11:27:11.775Z,18.00
2017-04-26T11:28:11.424Z,16.28
2017-04-26T11:29:11.148Z,16.13
2017-04-26T11:30:10.854Z,17.75
2017-04-26T11:31:10.501Z,15.90
2017-04-26T11:32:10.218Z,11.70
2017-04-26T11:33:09.919Z,14.12
2017-04-26T11:34:09.581Z,14.33
2017-04-26T11:35:09.338Z,12.08
2017-04-26T11:36:08.991Z,12.17
2017-04-26T11:37:08.734Z,13.70
2017-04-26T11:38:09.141Z,12.13
2017-04-26T11:39:08.854Z,13.90
2017-04-26T11:40:08.507Z,18.63
2017-04-26T11:41:08.155Z,13.35
2017-04-26T11:42:07.821Z,11.98
2017-04-26T11:43:07.539Z,12.82
2017-04-26T11:44:07.190Z,15.03
2017-04-26T11:45:06.917Z,17.17
2017-04-26T11:46:06.635Z,13.68
2017-04-26T11:47:06.331Z,12.08
2017-04-26T11:48:06.726Z,14.35
2017-04-26T11:49:06.380Z,13.47
2017-04-26T11:50:06.143Z,12.75
2017-04-26T11:51:06.599Z,12.72
2017-04-26T11:52:06.253Z,12.40
2017-04-26T11:53:05.892Z,12.30
2017-04-26T11:54:05.558Z,13.30
2017-04-26T11:55:05.218Z,13.77
2017-04-26T11:56:04.879Z,12.48
2017-04-26T11:57:04.588Z,15.97
2017-04-26T11:58:04.221Z,15.05
2017-04-26T11:59:03.902Z,16.47
2017-04-26T12:00:03.572Z,13.45
2017-04-26T12:01:03.230Z,14.43
2017-04-26T12:02:02.891Z,13.30
2017-04-26T12:03:02.646Z,16.87
2017-04-26T12:04:02.304Z,15.50
2017-04-26T12:05:01.992Z,12.83
2017-04-26T12:06:01.684Z,15.18
2017-04-26T12:07:01.343Z,13.70
2017-04-26T12:08:01.016Z,10.10
2017-04-26T12:09:00.736Z,10.97
2017-04-26T12:10:00.417Z,13.57
2017-04-26T12:11:00.866Z,8.87
2017-04-26T12:12:00.543Z,10.03
2017-04-26T12:13:00.311Z,12.18
2017-04-26T12:13:59.997Z,10.93
2017-04-26T12:14:59.779Z,13.95
2017-04-26T12:15:59.470Z,11.83
2017-04-26T12:16:59.170Z,11.22
2017-04-26T12:17:58.860Z,10.08
2017-04-26T12:18:58.542Z,10.62
2017-04-26T12:19:58.323Z,13.52
2017-04-26T12:20:58.040Z,13.07
2017-04-26T12:21:57.713Z,9.22
2017-04-26T12:22:57.411Z,13.28
2017-04-26T12:23:57.090Z,11.32
2017-04-26T12:24:56.760Z,12.68
2017-04-26T12:25:56.579Z,11.37
2017-04-26T12:26:56.306Z,14.92
2017-04-26T12:27:56.717Z,11.77
2017-04-26T12:28:57.173Z,14.03
2017-04-26T12:29:56.908Z,10.85
2017-04-26T12:30:56.614Z,11.20
2017-04-26T12:31:56.374Z,14.82
2017-04-26T12:32:56.059Z,15.35
2017-04-26T12:33:55.749Z,16.35
2017-04-26T12:34:55.453Z,15.32
2017-04-26T12:35:55.170Z,14.72
2017-04-26T12:36:54.857Z,15.53
2017-04-26T12:37:54.614Z,15.17
2017-04-26T12:38:54.300Z,16.73
2017-04-26T12:39:54.017Z,16.72
2017-04-26T12:40:53.714Z,16.43
2017-04-26T12:41:53.422Z,18.75
2017-04-26T12:42:53.128Z,14.20
2017-04-26T12:43:53.128Z,15.08
2017-04-26T12:44:52.825Z,17.12
2017-04-26T12:45:53.281Z,14.55
2017-04-26T12:46:52.995Z,14.52
2017-04-26T12:47:52.686Z,13.23
2017-04-26T12:48:52.505Z,15.07
2017-04-26T12:49:52.229Z,11.63
2017-04-26T12:50:51.930Z,15.68